Itueta, Brazil
Current Conditions -  °F | °C
As of 2:00 PM on Thursday 30 Oct 2014 (Local Time) from SBVT Reporting Station
Light Rain Light Rain  
Wind Chill: 75°   Ceiling: 4000
Heat Index: 75°   Visibility: 4mi
Dew Point: 70°   Wind: 20mph
Humidity: 83%   Direction: 40°NE
Pressure: 29.94"   Gusts: NA
Location:  19.39°S, 41.17°W
Report Text: SBVT 301600Z 04017KT 6000 -RA FEW010 SCT025 BKN040 24/21 Q1014
Loading
Personal Weather Stations






























Interactive Weather Map
Tropical Storm Tracking
New forecast layout! Learn more

10-Day Weather Forecast

Advertisements
Track Severe Weather on mobile